Orbital elements of FENGYUN 1C DEB
| Launched | 9 May 1999 |
| Flight ended | – |
| Launch site | Taiyuan Space Center, PRC |
| Owner | People's Republic of China |
| NORAD ID | 32185 |
| Date fetched |
Epoch osculation |
Inc. [°] |
Ecc. | RA asc node [hr] |
Arg Peri. [°] |
Mean anom [°] |
Mean motion [rev/day] |
Abs. mag |
| Date fetched |
Epoch osculation |
Inc. [°] |
Ecc. | RA asc node [hr] |
Arg Peri. [°] |
Mean anom [°] |
Mean motion [rev/day] |
Abs. mag |
| 2026 May 05 17:57 | 2026 May 05 09:31:02 | 98.8856 | 0.01038 | 0.0621 | 255.2387 | 103.7332 | 15.26453 | – |
| 2026 May 04 17:57 | 2026 Apr 30 14:38:24 | 98.8863 | 0.01053 | 23.6832 | 271.8401 | 103.7332 | 15.26453 | – |
| 2026 May 03 17:57 | 2026 Apr 30 14:38:24 | 98.8863 | 0.01053 | 23.6832 | 271.8401 | 103.7332 | 15.26453 | – |
| 2026 May 02 17:57 | 2026 Apr 30 14:38:24 | 98.8863 | 0.01053 | 23.6832 | 271.8401 | 103.7332 | 15.26453 | – |
| 2026 May 01 17:56 | 2026 Apr 30 14:38:24 | 98.8863 | 0.01053 | 23.6832 | 271.8401 | 103.7332 | 15.26453 | – |
| 2026 Apr 30 17:56 | 2026 Apr 30 14:38:24 | 98.8863 | 0.01053 | 23.6832 | 271.8401 | 103.7332 | 15.26453 | – |
| 2026 Apr 29 17:57 | 2026 Apr 22 01:55:23 | 98.8865 | 0.01081 | 23.0088 | 301.4718 | 103.7332 | 15.26453 | – |
| 2026 Apr 28 17:56 | 2026 Apr 22 01:55:23 | 98.8865 | 0.01081 | 23.0088 | 301.4718 | 103.7332 | 15.26453 | – |
| 2026 Apr 27 17:58 | 2026 Apr 22 01:55:23 | 98.8865 | 0.01081 | 23.0088 | 301.4718 | 103.7332 | 15.26453 | – |
| 2026 Apr 26 17:58 | 2026 Apr 22 01:55:23 | 98.8865 | 0.01081 | 23.0088 | 301.4718 | 103.7332 | 15.26453 | – |
| 2026 Apr 25 17:58 | 2026 Apr 22 01:55:23 | 98.8865 | 0.01081 | 23.0088 | 301.4718 | 103.7332 | 15.26453 | – |
| 2026 Apr 24 17:59 | 2026 Apr 22 01:55:23 | 98.8865 | 0.01081 | 23.0088 | 301.4718 | 103.7332 | 15.26453 | – |
| 2026 Apr 23 17:57 | 2026 Apr 18 14:25:00 | 98.8879 | 0.01094 | 22.7340 | 313.3981 | 103.7332 | 15.26453 | – |
| 2026 Apr 22 17:57 | 2026 Apr 18 14:25:00 | 98.8879 | 0.01094 | 22.7340 | 313.3981 | 103.7332 | 15.26453 | – |
| 2026 Apr 21 17:57 | 2026 Apr 18 14:25:00 | 98.8879 | 0.01094 | 22.7340 | 313.3981 | 103.7332 | 15.26453 | – |
| 2026 Apr 20 17:57 | 2026 Apr 18 14:25:00 | 98.8879 | 0.01094 | 22.7340 | 313.3981 | 103.7332 | 15.26453 | – |
| 2026 Apr 19 17:58 | 2026 Apr 18 14:25:00 | 98.8879 | 0.01094 | 22.7340 | 313.3981 | 103.7332 | 15.26453 | – |
| 2026 Apr 18 17:56 | 2026 Apr 13 02:01:22 | 98.8903 | 0.01111 | 22.2987 | 332.1678 | 103.7332 | 15.26453 | – |
| 2026 Apr 16 17:57 | 2026 Apr 13 02:01:22 | 98.8903 | 0.01111 | 22.2987 | 332.1678 | 103.7332 | 15.26453 | – |
| 2026 Apr 14 17:57 | 2026 Apr 13 02:01:22 | 98.8903 | 0.01111 | 22.2987 | 332.1678 | 103.7332 | 15.26453 | – |
| 2026 Apr 13 17:57 | 2026 Apr 13 02:01:22 | 98.8903 | 0.01111 | 22.2987 | 332.1678 | 103.7332 | 15.26453 | – |
| 2026 Apr 12 17:57 | 2026 Apr 08 02:11:33 | 98.8901 | 0.01131 | 21.9049 | 349.1629 | 103.7332 | 15.26453 | – |
| 2026 Apr 11 17:57 | 2026 Apr 08 02:11:33 | 98.8901 | 0.01131 | 21.9049 | 349.1629 | 103.7332 | 15.26453 | – |
| 2026 Apr 10 17:58 | 2026 Apr 08 02:11:33 | 98.8901 | 0.01131 | 21.9049 | 349.1629 | 103.7332 | 15.26453 | – |
| 2026 Apr 09 18:01 | 2026 Apr 08 02:11:33 | 98.8901 | 0.01131 | 21.9049 | 349.1629 | 103.7332 | 15.26453 | – |
| 2026 Apr 08 17:57 | 2026 Apr 08 02:11:33 | 98.8901 | 0.01131 | 21.9049 | 349.1629 | 103.7332 | 15.26453 | – |